Time;durP1;ratioP1;P1;durP2;ratioP2;P2;SDS_P1;SDS_P2;PMS_P1;PMS_P2;Temp;Humidity;BMP_temperature;BMP_pressure;BME280_temperature;BME280_humidity;BME280_pressure;Samples;Min_cycle;Max_cycle;Signal;HPM_P1;HPM_P2
2022/11/01 00:01:37;;;;;;;15.13;13.47;;;15.00;99.90;;;;;;4989624;28;20459;-85
2022/11/01 00:04:04;;;;;;;20.73;18.73;;;14.90;99.90;;;;;;4988531;28;20463;-85
2022/11/01 00:06:30;;;;;;;18.80;17.10;;;14.90;99.90;;;;;;4988299;28;20481;-85
2022/11/01 00:08:57;;;;;;;16.93;15.20;;;14.80;99.90;;;;;;4987666;28;20474;-85
2022/11/01 00:11:24;;;;;;;18.77;17.00;;;14.70;99.90;;;;;;4986889;28;20459;-85
2022/11/01 00:13:52;;;;;;;16.50;14.83;;;14.70;99.90;;;;;;4986188;28;20460;-86
2022/11/01 00:16:20;;;;;;;20.30;18.40;;;14.60;99.90;;;;;;4986466;28;20478;-86
2022/11/01 00:18:47;;;;;;;25.77;23.47;;;14.60;99.90;;;;;;4986248;28;20458;-86
2022/11/01 00:21:15;;;;;;;26.80;24.50;;;14.50;99.90;;;;;;4986215;28;20459;-85
2022/11/01 00:23:41;;;;;;;35.23;33.07;;;14.50;99.90;;;;;;4986210;28;20459;-86
2022/11/01 00:26:10;;;;;;;48.00;44.77;;;14.40;99.90;;;;;;4986296;28;20455;-85
2022/11/01 00:28:36;;;;;;;70.07;66.17;;;14.40;99.90;;;;;;4985819;28;20478;-84
2022/11/01 00:31:04;;;;;;;99.83;95.63;;;14.30;99.90;;;;;;4985774;28;20466;-86
2022/11/01 00:33:31;;;;;;;132.13;126.83;;;14.30;99.90;;;;;;4986157;28;20447;-86
2022/11/01 00:36:00;;;;;;;157.83;151.47;;;14.20;99.90;;;;;;4985307;28;20831;-86
2022/11/01 00:38:27;;;;;;;185.63;178.47;;;14.10;99.90;;;;;;4985262;28;20431;-85
2022/11/01 00:40:54;;;;;;;206.53;199.30;;;14.10;99.90;;;;;;4985368;28;20482;-86
2022/11/01 00:43:21;;;;;;;223.60;215.33;;;14.00;99.90;;;;;;4985373;28;20455;-85
2022/11/01 00:45:47;;;;;;;235.17;226.70;;;13.90;99.90;;;;;;4985262;28;20459;-85
2022/11/01 00:48:15;;;;;;;261.00;251.80;;;13.90;99.90;;;;;;4985572;28;20479;-87
2022/11/01 00:50:42;;;;;;;258.43;249.63;;;13.90;99.90;;;;;;4985167;28;20461;-86
2022/11/01 00:53:11;;;;;;;226.57;218.47;;;14.00;99.90;;;;;;4985204;28;20465;-86
2022/11/01 00:55:37;;;;;;;201.23;193.50;;;14.00;99.90;;;;;;4985221;28;20451;-85
2022/11/01 00:58:04;;;;;;;189.20;182.50;;;14.00;99.90;;;;;;4985291;28;20471;-85
2022/11/01 01:00:31;;;;;;;200.47;193.07;;;14.00;99.90;;;;;;4985368;28;20455;-86
2022/11/01 01:02:58;;;;;;;203.70;196.00;;;14.10;99.90;;;;;;4985937;28;20455;-85
2022/11/01 01:05:26;;;;;;;197.17;189.97;;;14.10;99.90;;;;;;4985981;28;20463;-85
2022/11/01 01:07:52;;;;;;;215.83;208.17;;;14.20;99.90;;;;;;4984877;28;20486;-85
2022/11/01 01:10:19;;;;;;;191.43;184.17;;;14.20;99.90;;;;;;4986157;28;20466;-84
2022/11/01 01:12:46;;;;;;;184.40;177.50;;;14.30;99.90;;;;;;4984535;28;20461;-86
2022/11/01 01:15:12;;;;;;;160.07;153.73;;;14.20;99.90;;;;;;4985151;28;20462;-85
2022/11/01 01:17:39;;;;;;;146.53;140.63;;;14.20;99.90;;;;;;4984739;28;20486;-85
2022/11/01 01:20:08;;;;;;;150.03;144.27;;;14.30;99.90;;;;;;4984426;28;20447;-86
2022/11/01 01:22:36;;;;;;;157.10;151.33;;;14.30;99.90;;;;;;4984825;28;20458;-86
2022/11/01 01:25:02;;;;;;;163.67;157.53;;;14.30;99.90;;;;;;4985925;28;20463;-86
2022/11/01 01:27:29;;;;;;;209.40;201.93;;;14.30;99.90;;;;;;4984981;28;20547;-85
2022/11/01 01:29:56;;;;;;;231.77;223.70;;;14.30;99.90;;;;;;4984533;28;20486;-86
2022/11/01 01:32:23;;;;;;;253.00;244.37;;;14.30;99.90;;;;;;4984311;28;20467;-86
2022/11/01 01:34:50;;;;;;;263.20;253.80;;;14.30;99.90;;;;;;4984639;28;20451;-85
2022/11/01 01:37:19;;;;;;;262.03;252.53;;;14.30;99.90;;;;;;4984412;28;20487;-85
2022/11/01 01:39:47;;;;;;;249.40;241.07;;;14.40;99.90;;;;;;4984527;28;20447;-85
2022/11/01 01:42:19;;;;;;;229.13;220.70;;;14.40;99.90;;;;;;4984947;28;20466;-86
2022/11/01 01:45:19;;;;;;;173.47;167.20;;;14.40;99.90;;;;;;4985473;28;20469;-86
2022/11/01 01:47:51;;;;;;;149.20;143.70;;;14.60;99.90;;;;;;4984043;28;20475;-86
2022/11/01 01:50:23;;;;;;;103.87;99.73;;;14.70;99.90;;;;;;4984603;28;20483;-88
2022/11/01 01:52:54;;;;;;;96.00;91.77;;;14.80;99.90;;;;;;4983978;28;20435;-86
2022/11/01 01:55:26;;;;;;;87.03;83.37;;;14.80;99.90;;;;;;4984015;28;20470;-85
2022/11/01 01:57:54;;;;;;;78.50;74.67;;;14.80;99.90;;;;;;4983908;28;20485;-86
2022/11/01 02:00:21;;;;;;;65.80;62.50;;;14.80;99.90;;;;;;4983906;28;20455;-85
2022/11/01 02:02:48;;;;;;;61.97;59.00;;;14.70;99.90;;;;;;4983954;28;20467;-85
2022/11/01 02:05:19;;;;;;;51.80;49.03;;;14.70;99.90;;;;;;4984299;28;20462;-86
2022/11/01 02:07:46;;;;;;;51.80;49.40;;;14.70;99.90;;;;;;4984912;28;20485;-85
2022/11/01 02:10:14;;;;;;;55.73;53.13;;;14.70;99.90;;;;;;4983998;28;20483;-86
2022/11/01 02:12:46;;;;;;;63.17;60.03;;;14.70;99.90;;;;;;4983307;28;20455;-85
2022/11/01 02:15:15;;;;;;;67.50;64.20;;;14.60;99.90;;;;;;4984208;28;20479;-85
2022/11/01 02:18:00;;;;;;;72.80;69.03;;;14.60;99.90;;;;;;4983322;28;20479;-85
2022/11/01 02:20:57;;;;;;;76.53;73.03;;;14.60;99.90;;;;;;4984672;28;20454;-85
2022/11/01 02:23:59;;;;;;;62.80;59.90;;;14.70;99.90;;;;;;4984475;28;20462;-86
2022/11/01 02:26:54;;;;;;;53.37;50.97;;;14.80;99.90;;;;;;4983654;28;20479;-86
2022/11/01 02:29:39;;;;;;;75.63;71.60;;;14.80;99.90;;;;;;4983821;28;20487;-85
2022/11/01 02:32:18;;;;;;;76.20;73.10;;;14.70;99.90;;;;;;4987682;28;20465;-86
2022/11/01 02:34:51;;;;;;;88.87;84.37;;;14.80;99.90;;;;;;4987853;28;20458;-86
2022/11/01 02:37:25;;;;;;;86.90;83.40;;;14.90;99.90;;;;;;4987270;28;20494;-86
2022/11/01 02:39:55;;;;;;;74.10;71.30;;;15.00;99.90;;;;;;4988249;28;20450;-86
2022/11/01 02:42:27;;;;;;;59.43;56.37;;;15.20;99.90;;;;;;4987866;28;20458;-86
2022/11/01 02:44:58;;;;;;;37.60;35.50;;;15.30;99.90;;;;;;4988690;28;20457;-85
2022/11/01 02:47:30;;;;;;;21.90;20.50;;;15.50;99.90;;;;;;4988654;28;20479;-85
2022/11/01 02:50:01;;;;;;;16.40;15.20;;;15.70;99.90;;;;;;4988096;28;20480;-86
2022/11/01 02:52:31;;;;;;;12.67;11.57;;;15.70;99.90;;;;;;4988322;28;20462;-85
2022/11/01 02:54:59;;;;;;;14.47;11.23;;;15.70;99.90;;;;;;4988701;28;20519;-85
2022/11/01 02:57:32;;;;;;;13.63;9.97;;;15.80;99.90;;;;;;4988454;28;20478;-85
2022/11/01 03:00:03;;;;;;;10.17;9.33;;;15.80;99.90;;;;;;4988186;28;20456;-85
2022/11/01 03:02:40;;;;;;;9.00;7.70;;;15.90;99.90;;;;;;4988542;28;20459;-86
2022/11/01 03:05:12;;;;;;;13.50;6.90;;;15.90;99.90;;;;;;4986979;28;20491;-85
2022/11/01 03:07:45;;;;;;;11.50;6.83;;;15.90;99.90;;;;;;4988835;28;20480;-84
2022/11/01 03:10:12;;;;;;;7.00;6.30;;;16.00;99.90;;;;;;4988552;28;20487;-85
2022/11/01 03:12:50;;;;;;;7.93;5.60;;;16.00;99.90;;;;;;4989073;28;20461;-85
2022/11/01 03:15:21;;;;;;;11.90;4.97;;;16.10;99.90;;;;;;4986609;28;20480;-85
2022/11/01 03:17:56;;;;;;;9.17;5.17;;;16.10;99.90;;;;;;4989849;28;20484;-85
2022/11/01 03:20:27;;;;;;;7.47;4.87;;;16.20;99.90;;;;;;4990380;28;20453;-86
2022/11/01 03:22:58;;;;;;;11.33;4.70;;;16.20;99.90;;;;;;4990375;28;20454;-86
2022/11/01 03:25:38;;;;;;;6.50;5.13;;;16.20;99.90;;;;;;4990164;28;20468;-87
2022/11/01 03:28:08;;;;;;;7.07;4.80;;;16.10;99.90;;;;;;4990256;28;20477;-85
2022/11/01 03:30:37;;;;;;;9.00;4.27;;;16.00;99.90;;;;;;4988002;28;20477;-85
2022/11/01 03:33:05;;;;;;;10.30;5.40;;;16.10;99.90;;;;;;4988505;28;20457;-85
2022/11/01 03:35:36;;;;;;;15.00;5.20;;;16.10;99.90;;;;;;4989567;28;20808;-85
2022/11/01 03:38:07;;;;;;;8.63;4.20;;;16.10;99.90;;;;;;4989750;28;20493;-87
2022/11/01 03:40:35;;;;;;;9.33;4.10;;;16.10;99.90;;;;;;4988943;28;20458;-86
2022/11/01 03:43:05;;;;;;;5.93;3.50;;;16.10;99.90;;;;;;4988787;28;20525;-86
2022/11/01 03:45:35;;;;;;;10.40;4.60;;;16.10;99.90;;;;;;4989535;28;20464;-85
2022/11/01 03:48:04;;;;;;;7.00;3.77;;;16.20;99.90;;;;;;4988977;28;20472;-85
2022/11/01 03:50:32;;;;;;;14.40;4.97;;;16.10;99.90;;;;;;4987794;28;20847;-86
2022/11/01 03:52:59;;;;;;;10.40;4.77;;;16.10;99.90;;;;;;4989426;28;20893;-85
2022/11/01 03:55:26;;;;;;;8.40;5.10;;;16.00;99.90;;;;;;4988226;28;20522;-86
2022/11/01 03:57:54;;;;;;;12.47;4.40;;;16.00;99.90;;;;;;4989393;28;20484;-86
2022/11/01 04:00:23;;;;;;;12.23;4.80;;;16.10;99.90;;;;;;4988732;28;20457;-86
2022/11/01 04:02:51;;;;;;;13.33;5.50;;;16.00;99.90;;;;;;4988032;28;20466;-86
2022/11/01 04:05:18;;;;;;;9.23;4.90;;;15.90;99.90;;;;;;4987701;28;20465;-86
2022/11/01 04:07:47;;;;;;;6.43;5.00;;;15.80;99.90;;;;;;4987294;28;20477;-86
2022/11/01 04:10:14;;;;;;;15.10;5.43;;;15.80;99.90;;;;;;4986338;28;20485;-86
2022/11/01 04:12:44;;;;;;;10.00;6.30;;;15.70;99.90;;;;;;4987811;28;20466;-86
2022/11/01 04:20:49;;;;;;;8.77;5.00;;;15.90;99.90;;;;;;4986458;28;20459;-85
2022/11/01 04:23:17;;;;;;;8.80;5.20;;;15.70;99.90;;;;;;4986566;28;20475;-86
2022/11/01 04:25:45;;;;;;;8.37;6.07;;;15.70;99.90;;;;;;4986358;28;20455;-86
2022/11/01 04:28:12;;;;;;;13.23;5.50;;;15.60;99.90;;;;;;4987647;28;20484;-86
2022/11/01 04:30:39;;;;;;;9.50;6.60;;;15.60;99.90;;;;;;4986953;28;20864;-86
2022/11/01 04:33:05;;;;;;;15.00;7.20;;;15.40;99.90;;;;;;4987931;28;20456;-86
2022/11/01 04:35:32;;;;;;;12.47;8.20;;;15.40;99.90;;;;;;4987994;28;20452;-86
2022/11/01 04:37:59;;;;;;;8.33;7.53;;;15.40;99.90;;;;;;5015019;23;20840;-85
2022/11/01 04:40:27;;;;;;;15.47;9.70;;;15.50;99.90;;;;;;4992561;28;20956;-86
2022/11/01 04:42:54;;;;;;;11.20;10.03;;;15.50;99.90;;;;;;4993184;28;20455;-85
2022/11/01 04:45:21;;;;;;;16.37;12.30;;;15.40;99.90;;;;;;4993376;28;20820;-85
2022/11/01 04:47:51;;;;;;;12.43;11.43;;;15.40;99.90;;;;;;4993139;28;20471;-85
2022/11/01 04:50:18;;;;;;;13.40;12.17;;;15.40;99.90;;;;;;4992645;28;20478;-85
2022/11/01 04:52:45;;;;;;;13.50;10.80;;;15.30;99.90;;;;;;4992834;28;20917;-85
2022/11/01 04:55:12;;;;;;;11.53;10.00;;;15.50;99.90;;;;;;4992990;28;20463;-85
2022/11/01 04:57:40;;;;;;;11.50;8.27;;;15.50;99.90;;;;;;4993084;28;20479;-85
2022/11/01 05:00:12;;;;;;;13.73;7.47;;;15.60;99.90;;;;;;4993403;28;20504;-87
2022/11/01 05:02:40;;;;;;;11.07;6.30;;;15.70;99.90;;;;;;4992834;28;20458;-85
2022/11/01 05:05:09;;;;;;;7.73;7.00;;;15.70;99.90;;;;;;4992784;28;20469;-85
2022/11/01 05:07:36;;;;;;;17.97;8.00;;;15.60;99.90;;;;;;4992897;28;20482;-85
2022/11/01 05:10:04;;;;;;;10.67;9.77;;;15.60;99.90;;;;;;4992966;28;20457;-86
2022/11/01 05:12:31;;;;;;;18.13;16.17;;;15.50;99.90;;;;;;4992655;28;20455;-85
2022/11/01 05:15:01;;;;;;;20.40;18.73;;;15.40;99.90;;;;;;4993063;28;20467;-85
2022/11/01 05:17:27;;;;;;;25.73;24.03;;;15.30;99.90;;;;;;4993129;28;20481;-85
2022/11/01 05:19:54;;;;;;;25.30;23.73;;;15.20;99.90;;;;;;4992783;28;20477;-85
2022/11/01 05:22:21;;;;;;;25.17;23.30;;;15.20;99.90;;;;;;4992762;28;20455;-86
2022/11/01 05:24:47;;;;;;;24.83;23.20;;;15.10;99.90;;;;;;4992734;28;20447;-86
2022/11/01 05:27:14;;;;;;;21.43;19.73;;;15.10;99.90;;;;;;4992649;28;20480;-86
2022/11/01 05:29:41;;;;;;;17.47;16.37;;;15.10;99.90;;;;;;4992606;28;20455;-86
2022/11/01 05:32:09;;;;;;;16.30;15.20;;;15.10;99.90;;;;;;4992218;28;20454;-85
2022/11/01 05:34:36;;;;;;;13.20;9.67;;;15.20;99.90;;;;;;4992675;28;20481;-86
2022/11/01 05:37:02;;;;;;;11.37;7.60;;;15.30;99.90;;;;;;4992383;28;20494;-85
2022/11/01 05:39:29;;;;;;;11.07;7.60;;;15.30;99.90;;;;;;4992501;28;20863;-85
2022/11/01 05:41:56;;;;;;;11.13;4.73;;;15.20;99.90;;;;;;4992077;28;20466;-86
2022/11/01 05:44:22;;;;;;;9.03;4.00;;;15.30;99.90;;;;;;4992485;28;20459;-85
2022/11/01 05:46:49;;;;;;;5.87;3.10;;;15.40;99.00;;;;;;4992230;28;20482;-85
2022/11/01 05:49:17;;;;;;;6.70;2.90;;;15.80;96.20;;;;;;4991866;28;20457;-86
2022/11/01 05:51:44;;;;;;;5.23;2.70;;;15.70;95.80;;;;;;4992174;28;20460;-85
2022/11/01 05:54:10;;;;;;;8.87;3.20;;;15.60;95.50;;;;;;4992448;28;20462;-86
2022/11/01 05:56:37;;;;;;;8.27;3.10;;;15.60;94.70;;;;;;4992347;28;20464;-85
2022/11/01 05:59:04;;;;;;;7.10;2.10;;;15.60;93.30;;;;;;4992300;28;20461;-85
2022/11/01 06:01:31;;;;;;;8.23;2.73;;;15.70;93.30;;;;;;4992229;28;20856;-86
2022/11/01 06:04:00;;;;;;;5.90;2.10;;;15.80;92.40;;;;;;4992352;28;20452;-86
2022/11/01 06:06:28;;;;;;;5.00;1.90;;;15.80;92.40;;;;;;4995140;28;20566;-86
2022/11/01 06:08:56;;;;;;;4.53;1.67;;;15.80;92.10;;;;;;4996186;28;20888;-85
2022/11/01 06:11:23;;;;;;;7.07;2.70;;;15.90;91.00;;;;;;4995671;28;20454;-85
2022/11/01 06:13:53;;;;;;;8.33;2.20;;;15.80;91.40;;;;;;4996627;28;20483;-85
2022/11/01 06:16:20;;;;;;;5.23;1.63;;;15.80;91.10;;;;;;4996259;28;20522;-85
2022/11/01 06:18:47;;;;;;;6.80;2.00;;;15.80;91.00;;;;;;4995920;28;20486;-85
2022/11/01 06:21:14;;;;;;;4.40;1.80;;;15.80;90.90;;;;;;4995799;28;20475;-85
2022/11/01 06:23:46;;;;;;;4.67;1.80;;;15.80;92.00;;;;;;4995817;28;20454;-85
2022/11/01 06:26:13;;;;;;;5.50;1.40;;;15.70;92.50;;;;;;4995833;28;20952;-86
2022/11/01 06:28:39;;;;;;;9.47;1.97;;;15.50;93.00;;;;;;4995721;28;20516;-85
2022/11/01 06:31:06;;;;;;;8.63;1.90;;;15.40;93.20;;;;;;4995580;28;20453;-85
2022/11/01 06:33:33;;;;;;;5.00;1.90;;;15.20;93.10;;;;;;4995809;28;20517;-85
2022/11/01 06:36:00;;;;;;;6.47;1.87;;;15.10;93.10;;;;;;4995994;28;20461;-85
2022/11/01 06:38:27;;;;;;;10.80;2.03;;;15.00;93.00;;;;;;4995498;28;20846;-85
2022/11/01 06:40:55;;;;;;;8.70;2.30;;;14.90;93.00;;;;;;4995469;28;20490;-86
2022/11/01 06:43:22;;;;;;;6.20;1.43;;;14.70;92.90;;;;;;4995883;28;20544;-84
2022/11/01 06:45:49;;;;;;;6.83;1.80;;;14.70;92.90;;;;;;4996151;28;20458;-85
2022/11/01 06:48:15;;;;;;;6.30;1.60;;;14.60;92.90;;;;;;4994829;28;20481;-85
2022/11/01 06:50:42;;;;;;;4.33;1.70;;;14.50;92.80;;;;;;4995064;28;20454;-85
2022/11/01 06:53:09;;;;;;;5.60;1.67;;;14.40;92.80;;;;;;4995154;28;20972;-84
2022/11/01 06:55:36;;;;;;;7.00;2.00;;;14.30;92.80;;;;;;4995277;28;20960;-84
2022/11/01 06:58:04;;;;;;;8.20;1.70;;;14.20;92.70;;;;;;4994914;28;20488;-84
2022/11/01 07:00:31;;;;;;;3.80;1.40;;;14.10;92.50;;;;;;4994701;28;21007;-84
2022/11/01 07:03:00;;;;;;;4.63;1.30;;;14.20;92.30;;;;;;4995002;28;20601;-84
2022/11/01 07:05:27;;;;;;;5.10;1.30;;;14.10;92.10;;;;;;4995272;28;20457;-84
2022/11/01 07:07:54;;;;;;;7.70;1.57;;;14.00;91.90;;;;;;4995290;28;20478;-84
2022/11/01 07:10:20;;;;;;;11.53;1.67;;;13.90;92.30;;;;;;4994625;28;20513;-85
2022/11/01 07:12:47;;;;;;;5.43;1.50;;;13.70;92.50;;;;;;4995141;28;20469;-84
2022/11/01 07:15:16;;;;;;;4.83;1.67;;;13.50;92.40;;;;;;4994809;28;20460;-84
2022/11/01 07:17:44;;;;;;;4.37;1.40;;;13.50;92.40;;;;;;4993457;28;20481;-84
2022/11/01 07:20:11;;;;;;;9.67;1.50;;;13.30;92.30;;;;;;4994972;28;20473;-85
2022/11/01 07:22:38;;;;;;;6.20;1.37;;;13.30;92.70;;;;;;4994843;28;20883;-84
2022/11/01 07:25:05;;;;;;;4.43;1.53;;;13.40;91.80;;;;;;4994739;28;20465;-85
2022/11/01 07:27:35;;;;;;;7.30;1.90;;;13.40;90.40;;;;;;4994697;28;20480;-85
2022/11/01 07:30:02;;;;;;;6.27;1.47;;;13.40;88.60;;;;;;4994408;28;20839;-84
2022/11/01 07:32:30;;;;;;;7.77;2.00;;;13.40;87.60;;;;;;4994532;28;20462;-85
2022/11/01 07:34:57;;;;;;;4.40;1.47;;;13.40;87.80;;;;;;4994701;28;20841;-85
2022/11/01 07:37:23;;;;;;;4.90;1.10;;;13.30;87.70;;;;;;4994519;28;20485;-84
2022/11/01 07:39:50;;;;;;;4.17;1.00;;;13.40;86.50;;;;;;4994291;28;20458;-84
2022/11/01 07:42:17;;;;;;;8.50;1.70;;;13.30;86.20;;;;;;4994575;28;20469;-86
2022/11/01 07:44:44;;;;;;;4.07;1.20;;;13.40;85.30;;;;;;4994323;28;20465;-84
2022/11/01 07:47:11;;;;;;;6.60;1.50;;;13.50;83.80;;;;;;4994472;28;20478;-84
2022/11/01 07:49:39;;;;;;;6.83;1.30;;;13.50;83.80;;;;;;4993861;28;20500;-84
2022/11/01 07:52:06;;;;;;;6.17;1.50;;;13.50;83.30;;;;;;4994224;28;20455;-84
2022/11/01 07:54:32;;;;;;;6.17;1.30;;;13.60;82.40;;;;;;4994202;28;20458;-84
2022/11/01 07:56:59;;;;;;;3.97;1.03;;;13.70;82.00;;;;;;4994068;28;20514;-84
2022/11/01 07:59:26;;;;;;;8.23;1.53;;;13.70;83.00;;;;;;4994169;28;20461;-84
2022/11/01 08:01:52;;;;;;;5.37;1.43;;;13.70;82.30;;;;;;4993681;28;20482;-84
2022/11/01 08:04:19;;;;;;;9.10;1.60;;;13.70;80.50;;;;;;4992854;28;20458;-84
2022/11/01 08:06:47;;;;;;;5.57;1.83;;;13.70;79.60;;;;;;4993604;28;20477;-84
2022/11/01 08:09:14;;;;;;;14.77;1.70;;;13.70;80.30;;;;;;4993551;28;20461;-84
2022/11/01 08:11:41;;;;;;;8.13;1.87;;;13.60;80.20;;;;;;4993404;28;20485;-84
2022/11/01 08:14:08;;;;;;;10.40;1.80;;;13.60;78.20;;;;;;4993587;28;20466;-84
2022/11/01 08:16:35;;;;;;;9.73;1.80;;;13.60;75.90;;;;;;4993442;28;20513;-84
2022/11/01 08:19:01;;;;;;;11.47;2.77;;;13.60;78.40;;;;;;4993283;28;20454;-84
2022/11/01 08:21:28;;;;;;;16.93;2.90;;;13.70;76.20;;;;;;4992890;28;20475;-85
2022/11/01 08:23:56;;;;;;;8.53;1.87;;;13.70;77.60;;;;;;4993051;28;20966;-85
2022/11/01 08:26:23;;;;;;;10.90;1.93;;;13.70;77.20;;;;;;4993287;28;20457;-84
2022/11/01 08:28:51;;;;;;;7.20;1.63;;;13.80;75.50;;;;;;4993175;28;20481;-84
2022/11/01 08:31:17;;;;;;;5.93;1.83;;;13.80;76.60;;;;;;4992931;28;20583;-84
2022/11/01 08:33:44;;;;;;;16.23;2.10;;;13.90;77.00;;;;;;4993073;28;20454;-84
2022/11/01 08:36:11;;;;;;;11.67;2.00;;;13.90;77.70;;;;;;4992981;28;21002;-85
2022/11/01 08:38:38;;;;;;;14.40;1.77;;;13.90;78.70;;;;;;4993329;28;20552;-84
2022/11/01 08:41:06;;;;;;;10.60;1.93;;;13.90;77.80;;;;;;4993174;28;20481;-84
2022/11/01 08:43:33;;;;;;;7.33;1.57;;;14.00;76.90;;;;;;4993361;28;20878;-84
2022/11/01 08:45:59;;;;;;;9.57;1.53;;;14.10;76.50;;;;;;4993440;28;20458;-84
2022/11/01 08:48:26;;;;;;;7.07;1.60;;;14.10;77.00;;;;;;4992587;28;20866;-84
2022/11/01 08:50:53;;;;;;;10.23;1.40;;;14.20;76.30;;;;;;4992992;28;20454;-84
2022/11/01 08:53:20;;;;;;;10.83;2.57;;;14.30;76.40;;;;;;4993254;28;20453;-85
2022/11/01 08:55:46;;;;;;;7.63;1.70;;;14.20;74.40;;;;;;4993316;28;20473;-84
2022/11/01 08:58:14;;;;;;;6.90;1.70;;;14.40;76.30;;;;;;4993052;28;20478;-84
2022/11/01 09:00:41;;;;;;;6.07;1.40;;;14.40;77.00;;;;;;4993624;28;20477;-84
2022/11/01 09:03:08;;;;;;;13.43;1.50;;;14.50;75.40;;;;;;4993106;28;20458;-84
2022/11/01 09:05:35;;;;;;;12.17;1.80;;;14.50;75.20;;;;;;4992936;28;20462;-85
2022/11/01 09:08:02;;;;;;;6.73;1.60;;;14.60;76.70;;;;;;4993041;28;20479;-85
2022/11/01 09:10:31;;;;;;;5.90;1.57;;;14.70;75.90;;;;;;4993481;28;20462;-85
2022/11/01 09:12:58;;;;;;;11.93;2.07;;;14.80;76.30;;;;;;4992836;28;20516;-84
2022/11/01 09:15:26;;;;;;;6.83;2.00;;;14.80;75.40;;;;;;4992757;28;20460;-84
2022/11/01 09:17:53;;;;;;;10.40;1.90;;;14.90;73.90;;;;;;4993137;28;20474;-84
2022/11/01 09:20:20;;;;;;;10.37;1.90;;;14.90;74.50;;;;;;4992631;28;20448;-84
2022/11/01 09:22:51;;;;;;;7.70;2.10;;;14.90;74.50;;;;;;4993195;28;20461;-84
2022/11/01 09:25:18;;;;;;;10.73;2.30;;;15.00;74.10;;;;;;4992817;28;20489;-85
2022/11/01 09:27:44;;;;;;;8.67;2.13;;;15.10;75.40;;;;;;4992503;28;20996;-84
2022/11/01 09:30:12;;;;;;;7.50;1.47;;;15.20;73.10;;;;;;4992509;28;20459;-85
2022/11/01 09:32:40;;;;;;;9.77;2.43;;;15.30;73.90;;;;;;4992678;28;20455;-85
2022/11/01 09:35:07;;;;;;;8.90;1.80;;;15.30;73.80;;;;;;4993214;28;20656;-86
2022/11/01 09:37:34;;;;;;;8.70;1.93;;;15.50;71.50;;;;;;4992684;28;20900;-85
2022/11/01 09:40:02;;;;;;;7.83;1.50;;;15.70;70.20;;;;;;4991754;28;20452;-85
2022/11/01 09:42:33;;;;;;;7.23;2.23;;;16.10;69.30;;;;;;4992461;28;21015;-82
2022/11/01 09:45:04;;;;;;;8.90;2.00;;;16.40;67.20;;;;;;4994111;28;20518;-88
2022/11/01 09:47:32;;;;;;;7.30;1.37;;;16.80;67.20;;;;;;4993567;28;20477;-85
2022/11/01 09:50:06;;;;;;;10.83;2.87;;;17.10;64.90;;;;;;4991902;28;20463;-85
2022/11/01 09:52:33;;;;;;;9.07;1.50;;;17.40;62.10;;;;;;4992148;28;20877;-85
2022/11/01 09:54:59;;;;;;;7.10;1.33;;;17.50;59.50;;;;;;4992242;28;20457;-85
2022/11/01 09:57:35;;;;;;;10.43;1.67;;;17.70;59.80;;;;;;4992399;28;20474;-85
2022/11/01 10:00:06;;;;;;;10.97;2.00;;;17.80;57.40;;;;;;4992395;28;20459;-85
2022/11/01 10:03:04;;;;;;;8.13;1.63;;;18.10;56.60;;;;;;4992057;28;20485;-86
2022/11/01 10:05:47;;;;;;;11.87;2.17;;;18.30;56.20;;;;;;4992570;28;20540;-86
2022/11/01 10:08:26;;;;;;;10.60;1.90;;;18.40;54.40;;;;;;4992315;28;20475;-85
2022/11/01 10:11:03;;;;;;;16.17;2.47;;;18.80;55.60;;;;;;4991966;28;20840;-85
2022/11/01 10:13:43;;;;;;;10.40;2.27;;;18.80;54.80;;;;;;4992303;28;20946;-85
2022/11/01 10:16:18;;;;;;;15.40;2.27;;;18.90;52.20;;;;;;4992379;28;20459;-85
2022/11/01 10:18:51;;;;;;;7.40;1.90;;;19.00;52.30;;;;;;4992327;28;20507;-85
2022/11/01 10:21:21;;;;;;;14.73;2.10;;;18.90;52.20;;;;;;4992989;28;20483;-85
2022/11/01 10:23:50;;;;;;;8.53;1.57;;;19.00;49.70;;;;;;4997524;28;20530;-84
2022/11/01 10:26:21;;;;;;;7.63;1.60;;;19.30;50.00;;;;;;4995526;28;20464;-83
2022/11/01 10:28:54;;;;;;;9.40;1.43;;;19.30;48.20;;;;;;4992825;28;20868;-83
2022/11/01 10:31:24;;;;;;;9.00;1.60;;;19.70;48.90;;;;;;4992564;28;20456;-82
2022/11/01 10:33:56;;;;;;;7.13;1.53;;;20.00;47.00;;;;;;4993661;28;20472;-85
2022/11/01 10:36:30;;;;;;;14.70;2.00;;;20.00;47.30;;;;;;4996873;28;20460;-84
2022/11/01 10:39:06;;;;;;;8.27;1.40;;;19.80;46.30;;;;;;4987594;23;20483;-84
2022/11/01 10:41:39;;;;;;;10.33;2.03;;;19.80;46.50;;;;;;4954165;29;20488;-84
2022/11/01 10:44:20;;;;;;;11.80;1.80;;;19.60;46.40;;;;;;4954557;29;20477;-85
2022/11/01 10:47:05;;;;;;;7.67;1.70;;;19.20;43.80;;;;;;4954198;29;20463;-85
2022/11/01 10:49:35;;;;;;;10.20;1.77;;;19.50;43.90;;;;;;4935255;29;20490;-85
2022/11/01 10:52:09;;;;;;;7.83;1.37;;;19.70;44.10;;;;;;4938031;29;20455;-84
2022/11/01 10:54:40;;;;;;;12.93;2.00;;;19.60;44.00;;;;;;4938290;29;20466;-84
2022/11/01 10:57:11;;;;;;;13.43;1.53;;;19.70;44.10;;;;;;4938769;29;20451;-85
2022/11/01 10:59:45;;;;;;;9.83;1.63;;;20.10;44.50;;;;;;4944076;29;20457;-85
2022/11/01 11:02:18;;;;;;;10.63;1.83;;;20.40;42.90;;;;;;4943155;29;20456;-84
2022/11/01 11:04:44;;;;;;;6.47;1.67;;;20.20;41.10;;;;;;4939434;29;20465;-85
2022/11/01 11:07:15;;;;;;;11.60;1.77;;;20.20;41.40;;;;;;4941299;29;20466;-86
2022/11/01 11:09:42;;;;;;;9.73;2.03;;;19.90;39.70;;;;;;4943330;29;20459;-84
2022/11/01 11:12:14;;;;;;;15.63;2.83;;;20.20;40.90;;;;;;4940815;29;20484;-85
2022/11/01 11:14:42;;;;;;;7.53;1.67;;;20.30;41.20;;;;;;4938920;29;20445;-85
2022/11/01 11:17:18;;;;;;;8.83;1.60;;;20.60;40.30;;;;;;4938740;29;20460;-85
2022/11/01 11:19:46;;;;;;;8.70;2.13;;;20.90;38.40;;;;;;4938613;29;20567;-86
2022/11/01 11:22:15;;;;;;;7.20;1.67;;;20.90;36.60;;;;;;4938838;29;20554;-85
2022/11/01 11:24:43;;;;;;;9.27;1.83;;;21.00;37.80;;;;;;4938363;29;20488;-86
2022/11/01 11:27:22;;;;;;;14.60;1.70;;;20.70;37.60;;;;;;4938359;29;20470;-86
2022/11/01 11:29:51;;;;;;;7.23;1.70;;;21.00;39.20;;;;;;4938317;29;20444;-85
2022/11/01 11:32:20;;;;;;;10.47;2.37;;;20.90;36.10;;;;;;4939245;29;20491;-85
2022/11/01 11:34:54;;;;;;;8.77;1.83;;;21.00;36.20;;;;;;4938774;29;20456;-85
2022/11/01 11:37:24;;;;;;;7.60;2.03;;;21.20;37.30;;;;;;4938489;29;20488;-85
2022/11/01 11:40:20;;;;;;;15.00;2.43;;;21.20;35.60;;;;;;4940402;29;20467;-85
2022/11/01 11:42:48;;;;;;;11.80;2.47;;;21.30;35.50;;;;;;4941549;29;20448;-86
2022/11/01 11:45:22;;;;;;;9.53;1.97;;;21.50;35.10;;;;;;4938288;29;20460;-85
2022/11/01 11:47:50;;;;;;;12.20;2.10;;;21.90;34.80;;;;;;4938768;29;20563;-86
2022/11/01 11:50:31;;;;;;;11.00;2.00;;;22.00;32.90;;;;;;4937958;29;20559;-85
2022/11/01 11:53:03;;;;;;;6.77;1.53;;;21.80;30.50;;;;;;4937699;29;20477;-85
2022/11/01 11:55:38;;;;;;;17.70;2.70;;;21.30;33.70;;;;;;4944938;29;20456;-86
2022/11/01 11:58:13;;;;;;;13.17;2.63;;;21.40;30.30;;;;;;4938060;29;20479;-86
2022/11/01 12:00:47;;;;;;;9.13;3.10;;;21.60;30.50;;;;;;4940248;29;20445;-87
2022/11/01 12:03:16;;;;;;;20.07;2.73;;;21.90;30.90;;;;;;4938368;29;20459;-86
2022/11/01 12:05:53;;;;;;;8.40;2.70;;;22.30;29.20;;;;;;4937264;29;20463;-86
2022/11/01 12:11:19;;;;;;;10.57;1.87;;;22.10;28.50;;;;;;4948103;29;20484;-85
2022/11/01 12:14:01;;;;;;;13.70;2.33;;;21.90;28.40;;;;;;4941770;29;20471;-85
2022/11/01 12:16:28;;;;;;;9.40;2.00;;;21.80;27.70;;;;;;4938682;29;20457;-85
2022/11/01 12:18:57;;;;;;;6.90;1.70;;;21.30;26.70;;;;;;4936587;29;20481;-86
2022/11/01 12:21:28;;;;;;;6.97;2.13;;;21.00;27.80;;;;;;4936385;29;20457;-86
2022/11/01 12:24:00;;;;;;;9.80;2.40;;;20.60;30.10;;;;;;4937943;29;20666;-86
2022/11/01 12:26:36;;;;;;;12.43;2.10;;;20.10;30.20;;;;;;4937221;29;20448;-86
2022/11/01 12:29:20;;;;;;;8.63;2.07;;;20.40;33.30;;;;;;4936767;29;20488;-86
2022/11/01 12:31:48;;;;;;;12.33;1.83;;;20.60;36.20;;;;;;4936687;29;20472;-85
2022/11/01 12:34:20;;;;;;;7.50;1.50;;;20.50;31.70;;;;;;4936691;29;20460;-86
2022/11/01 12:36:53;;;;;;;10.93;1.60;;;20.40;31.90;;;;;;4936467;29;20830;-86
2022/11/01 12:39:38;;;;;;;12.10;1.50;;;20.10;32.00;;;;;;4936592;29;20441;-86
2022/11/01 12:42:05;;;;;;;10.10;1.90;;;20.10;32.00;;;;;;4936767;29;20453;-85
2022/11/01 12:44:37;;;;;;;11.20;1.80;;;20.40;33.40;;;;;;4936258;29;20452;-86
2022/11/01 12:47:14;;;;;;;7.83;1.93;;;19.90;33.60;;;;;;4936062;29;20460;-85
2022/11/01 12:49:46;;;;;;;9.30;2.07;;;20.60;33.90;;;;;;4936567;29;20467;-85
2022/11/01 12:52:19;;;;;;;9.40;1.77;;;21.10;33.00;;;;;;4936510;29;20507;-85
2022/11/01 12:55:00;;;;;;;8.57;1.80;;;21.30;29.30;;;;;;4936116;29;20457;-85
2022/11/01 12:57:28;;;;;;;11.43;2.10;;;20.80;29.50;;;;;;4936212;29;20932;-85